Time;durP1;ratioP1;P1;durP2;ratioP2;P2;SDS_P1;SDS_P2;PMS_P1;PMS_P2;Temp;Humidity;BMP_temperature;BMP_pressure;BME280_temperature;BME280_humidity;BME280_pressure;Samples;Min_cycle;Max_cycle;Signal;HPM_P1;HPM_P2
2022/04/12 00:00:40;;;;;;;4.32;2.75;;;;;;;9.22;92.28;99738.13;5073868;28;20031;-58
2022/04/12 00:03:06;;;;;;;5.75;3.17;;;;;;;9.17;92.85;99734.75;5073972;28;20107;-57
2022/04/12 00:05:37;;;;;;;4.68;3.45;;;;;;;9.18;92.78;99738.25;5055645;28;20025;-59
2022/04/12 00:08:03;;;;;;;4.35;2.72;;;;;;;9.20;92.96;99739.09;5091513;28;20024;-58
2022/04/12 00:10:29;;;;;;;5.78;3.35;;;;;;;9.11;92.52;99724.31;5093570;28;20210;-60
2022/04/12 00:12:56;;;;;;;5.03;2.70;;;;;;;9.08;92.85;99734.16;5094049;28;20103;-58
2022/04/12 00:15:22;;;;;;;4.20;2.75;;;;;;;8.97;92.88;99742.47;5094245;28;20111;-58
2022/04/12 00:20:32;;;;;;;4.70;2.80;;;;;;;8.90;93.40;99740.03;5091706;28;20068;-58
2022/04/12 00:22:58;;;;;;;6.53;2.97;;;;;;;8.87;93.33;99740.13;5093514;28;20028;-59
2022/04/12 00:25:25;;;;;;;4.22;2.58;;;;;;;8.80;93.43;99743.88;5093590;28;20527;-59
2022/04/12 00:27:52;;;;;;;5.13;3.47;;;;;;;8.80;93.61;99739.44;5093947;28;20081;-58
2022/04/12 00:30:19;;;;;;;6.28;2.97;;;;;;;8.91;93.16;99747.09;5093496;28;20036;-60
2022/04/12 00:32:45;;;;;;;5.05;2.63;;;;;;;8.90;92.88;99742.69;5093808;28;20020;-59
2022/04/12 00:35:11;;;;;;;5.00;2.55;;;;;;;8.85;92.73;99736.66;5078347;28;20029;-59
2022/04/12 00:37:36;;;;;;;6.63;3.00;;;;;;;8.76;93.18;99737.81;5072751;28;20020;-58
2022/04/12 00:40:04;;;;;;;3.63;2.50;;;;;;;8.77;93.67;99743.97;5072041;28;20046;-58
2022/04/12 00:42:30;;;;;;;4.13;2.60;;;;;;;8.81;93.98;99745.63;5072899;28;20131;-58
2022/04/12 00:44:55;;;;;;;5.07;3.33;;;;;;;8.79;93.74;99747.44;5073300;28;20035;-58
2022/04/12 00:47:21;;;;;;;4.43;2.85;;;;;;;8.69;93.40;99745.97;5073007;28;20452;-58
2022/04/12 00:49:46;;;;;;;6.60;2.92;;;;;;;8.69;93.45;99735.38;5071473;28;20060;-60
2022/04/12 00:52:12;;;;;;;4.32;3.00;;;;;;;8.66;93.72;99746.94;5072446;28;20468;-58
2022/04/12 00:54:38;;;;;;;5.95;2.65;;;;;;;8.64;94.00;99743.47;5072425;28;20043;-60
2022/04/12 00:57:05;;;;;;;5.07;3.17;;;;;;;8.66;94.04;99732.81;5061168;28;20096;-58
2022/04/12 00:59:32;;;;;;;4.88;2.88;;;;;;;8.63;94.24;99735.56;5052360;28;20021;-58
2022/04/12 01:01:57;;;;;;;4.55;2.95;;;;;;;8.66;94.18;99738.13;5053103;28;20040;-57
2022/04/12 01:04:23;;;;;;;4.57;2.97;;;;;;;8.68;94.57;99736.31;5052690;28;20163;-60
2022/04/12 01:06:50;;;;;;;5.47;3.10;;;;;;;8.70;94.28;99737.09;5059489;28;20024;-58
2022/04/12 01:09:16;;;;;;;9.02;3.60;;;;;;;8.64;94.35;99727.56;5072458;28;20025;-58
2022/04/12 01:11:44;;;;;;;5.70;3.47;;;;;;;8.63;94.37;99722.31;5072803;28;20534;-60
2022/04/12 01:14:09;;;;;;;6.63;3.38;;;;;;;8.66;94.35;99724.88;5069459;28;20368;-58
2022/04/12 01:16:35;;;;;;;5.80;3.15;;;;;;;8.67;94.35;99722.16;5060266;28;20058;-58
2022/04/12 01:19:00;;;;;;;4.80;3.53;;;;;;;8.61;94.25;99717.06;5091853;28;20398;-60
2022/04/12 01:21:32;;;;;;;4.55;3.50;;;;;;;8.53;94.36;99713.75;5092599;28;20415;-58
2022/04/12 01:24:00;;;;;;;7.43;3.30;;;;;;;8.57;93.96;99715.38;5092556;28;20020;-59
2022/04/12 01:26:27;;;;;;;5.95;3.40;;;;;;;8.55;93.96;99711.06;5092346;28;20044;-58
2022/04/12 01:28:52;;;;;;;5.55;3.42;;;;;;;8.55;94.32;99708.41;5092171;28;20020;-59
2022/04/12 01:31:18;;;;;;;7.32;3.92;;;;;;;8.57;94.25;99701.25;5061091;28;20332;-59
2022/04/12 01:33:44;;;;;;;6.47;4.32;;;;;;;8.61;94.14;99710.88;5050778;28;20058;-59
2022/04/12 01:36:09;;;;;;;7.22;3.80;;;;;;;8.57;94.20;99703.91;5053525;28;20028;-58
2022/04/12 01:38:35;;;;;;;9.05;4.07;;;;;;;8.49;93.98;99711.22;5072074;28;20028;-58
2022/04/12 01:41:02;;;;;;;9.15;4.40;;;;;;;8.42;93.83;99705.22;5072215;28;20031;-58
2022/04/12 01:43:28;;;;;;;5.25;3.60;;;;;;;8.37;93.98;99701.00;5072120;28;20471;-59
2022/04/12 01:45:53;;;;;;;8.55;4.07;;;;;;;8.39;93.45;99705.31;5068193;28;20027;-59
2022/04/12 01:48:18;;;;;;;6.20;4.10;;;;;;;8.34;93.62;99701.06;5052036;28;20112;-60
2022/04/12 01:50:44;;;;;;;9.80;3.45;;;;;;;8.27;93.71;99710.13;5052451;28;20016;-59
2022/04/12 01:53:09;;;;;;;4.93;3.53;;;;;;;8.15;94.29;99697.16;5052973;28;20025;-58
2022/04/12 01:55:35;;;;;;;5.20;3.35;;;;;;;8.16;94.27;99696.25;5051591;28;20108;-59
2022/04/12 01:58:00;;;;;;;4.80;3.30;;;;;;;8.03;94.37;99695.72;5052001;28;20025;-60
2022/04/12 02:00:26;;;;;;;6.90;4.10;;;;;;;8.01;94.49;99693.13;5051630;28;20553;-59
2022/04/12 02:02:51;;;;;;;6.35;3.72;;;;;;;7.94;94.39;99702.13;5051541;28;20036;-59
2022/04/12 02:05:16;;;;;;;5.72;3.80;;;;;;;7.86;94.85;99698.84;5051368;28;20029;-59
2022/04/12 02:07:45;;;;;;;5.90;3.40;;;;;;;7.81;95.11;99700.72;5065017;28;20032;-59
2022/04/12 02:10:11;;;;;;;6.82;3.40;;;;;;;7.81;95.93;99695.44;5070128;28;20081;-59
2022/04/12 02:12:36;;;;;;;5.97;3.97;;;;;;;7.81;95.73;99700.72;5071779;28;20032;-59
2022/04/12 02:15:02;;;;;;;9.02;4.22;;;;;;;7.80;96.43;99704.31;5071383;28;20451;-59
2022/04/12 02:17:28;;;;;;;6.63;3.33;;;;;;;7.75;96.12;99703.56;5082823;28;20115;-59
2022/04/12 02:19:54;;;;;;;5.72;3.15;;;;;;;7.81;96.10;99705.16;5091495;28;20052;-60
2022/04/12 02:22:19;;;;;;;6.70;3.58;;;;;;;7.69;95.61;99708.97;5091619;28;20028;-59
2022/04/12 02:24:44;;;;;;;5.82;3.40;;;;;;;7.70;95.95;99712.50;5091464;28;20039;-59
2022/04/12 02:27:10;;;;;;;5.10;3.20;;;;;;;7.71;96.01;99704.53;5090925;28;20028;-59
2022/04/12 02:29:35;;;;;;;6.03;3.65;;;;;;;7.74;96.54;99706.25;5084073;28;20070;-60
2022/04/12 02:32:01;;;;;;;5.03;3.58;;;;;;;7.65;96.19;99707.34;5071472;28;20173;-60
2022/04/12 02:34:26;;;;;;;5.38;4.40;;;;;;;7.70;96.26;99712.50;5070724;28;20028;-59
2022/04/12 02:36:51;;;;;;;7.82;3.28;;;;;;;7.76;96.30;99707.03;5071358;28;20024;-59
2022/04/12 02:39:17;;;;;;;6.18;3.90;;;;;;;7.74;96.17;99704.44;5071252;28;20116;-59
2022/04/12 02:41:42;;;;;;;6.20;4.13;;;;;;;7.75;96.03;99705.31;5071376;28;20028;-59
2022/04/12 02:44:08;;;;;;;8.15;3.60;;;;;;;7.71;96.74;99699.22;5072056;28;20047;-59
2022/04/12 02:46:33;;;;;;;6.68;4.20;;;;;;;7.68;96.04;99704.63;5074894;28;20032;-59
2022/04/12 02:48:59;;;;;;;8.90;4.45;;;;;;;7.59;96.77;99698.69;5075124;28;20028;-59
2022/04/12 02:51:24;;;;;;;6.47;4.13;;;;;;;7.55;96.66;99697.91;5074718;28;20538;-59
2022/04/12 02:53:50;;;;;;;7.95;4.40;;;;;;;7.59;96.38;99698.69;5075326;28;20036;-59
2022/04/12 02:56:15;;;;;;;5.20;3.28;;;;;;;7.51;96.64;99704.16;5075104;28;20027;-59
2022/04/12 02:58:41;;;;;;;6.65;3.50;;;;;;;7.36;96.71;99693.13;5075051;28;20122;-59
2022/04/12 03:01:06;;;;;;;6.22;3.88;;;;;;;7.36;97.30;99701.94;5075158;28;20048;-59
2022/04/12 03:03:32;;;;;;;5.80;4.00;;;;;;;7.37;97.71;99705.41;5059501;28;20096;-59
2022/04/12 03:05:58;;;;;;;6.28;4.18;;;;;;;7.33;98.03;99698.50;5054992;28;20036;-58
2022/04/12 03:08:23;;;;;;;13.00;4.60;;;;;;;7.35;98.13;99699.28;5075022;28;20074;-59
2022/04/12 03:10:49;;;;;;;7.07;4.40;;;;;;;7.38;98.13;99708.03;5074731;28;20033;-59
2022/04/12 03:13:14;;;;;;;6.85;4.05;;;;;;;7.37;97.85;99703.66;5074901;28;20020;-60
2022/04/12 03:15:40;;;;;;;6.47;4.07;;;;;;;7.23;98.34;99679.31;5073515;28;20078;-60
2022/04/12 03:18:06;;;;;;;8.25;4.55;;;;;;;7.30;98.33;99699.41;5090372;28;20028;-58
2022/04/12 03:20:32;;;;;;;5.68;3.90;;;;;;;7.31;98.22;99711.75;5094017;28;20097;-59
2022/04/12 03:22:58;;;;;;;8.38;6.05;;;;;;;7.28;98.43;99703.03;5094723;28;20023;-60
2022/04/12 03:25:24;;;;;;;7.35;4.70;;;;;;;7.24;98.09;99691.63;5094565;28;20016;-59
2022/04/12 03:27:49;;;;;;;7.82;4.45;;;;;;;7.33;98.53;99699.34;5095107;28;20463;-59
2022/04/12 03:30:15;;;;;;;8.27;4.15;;;;;;;7.29;97.91;99705.63;5092331;28;20028;-59
2022/04/12 03:32:40;;;;;;;6.70;4.10;;;;;;;7.19;98.13;99706.75;5054814;28;20545;-59
2022/04/12 03:35:06;;;;;;;6.35;4.80;;;;;;;7.21;98.73;99709.34;5053879;28;20115;-59
2022/04/12 03:37:32;;;;;;;7.78;4.00;;;;;;;7.18;98.04;99705.00;5068012;28;20047;-59
2022/04/12 03:39:57;;;;;;;7.35;4.70;;;;;;;7.11;98.65;99710.47;5073848;28;20056;-59
2022/04/12 03:42:22;;;;;;;7.90;4.68;;;;;;;7.13;98.23;99714.84;5074000;28;20027;-59
2022/04/12 03:44:48;;;;;;;8.68;4.60;;;;;;;7.11;98.65;99711.34;5074326;28;20032;-59
2022/04/12 03:47:14;;;;;;;9.95;5.13;;;;;;;7.11;98.92;99719.28;5066728;28;20021;-59
2022/04/12 03:49:39;;;;;;;6.68;4.20;;;;;;;7.00;98.36;99712.50;5055179;28;20752;-59
2022/04/12 03:52:05;;;;;;;8.05;4.65;;;;;;;6.95;98.52;99704.69;5054358;28;20025;-59
2022/04/12 03:54:31;;;;;;;9.85;4.15;;;;;;;6.84;99.29;99706.69;5053908;28;20035;-60
2022/04/12 03:56:57;;;;;;;8.73;5.28;;;;;;;6.87;100.00;99700.47;5052953;28;20029;-60
2022/04/12 03:59:23;;;;;;;8.35;5.32;;;;;;;6.94;99.64;99697.66;5053361;28;20035;-58
2022/04/12 04:01:49;;;;;;;9.57;5.35;;;;;;;6.91;99.97;99691.56;5053748;28;20104;-59
2022/04/12 04:04:16;;;;;;;10.38;5.35;;;;;;;6.97;99.95;99702.00;5053828;28;20446;-60
2022/04/12 04:06:41;;;;;;;7.45;4.88;;;;;;;6.93;100.00;99684.47;5059718;28;20020;-59
2022/04/12 04:09:07;;;;;;;9.63;5.85;;;;;;;7.00;99.93;99702.78;5073144;28;20029;-60
2022/04/12 04:11:33;;;;;;;7.72;5.25;;;;;;;6.93;100.00;99713.53;5073542;28;20082;-60
2022/04/12 04:14:03;;;;;;;8.20;5.45;;;;;;;6.88;100.00;99711.00;5073827;28;20039;-59
2022/04/12 04:16:29;;;;;;;8.68;5.70;;;;;;;6.85;100.00;99704.94;5076234;28;20021;-59
2022/04/12 04:18:55;;;;;;;9.75;5.25;;;;;;;6.80;100.00;99699.75;5093687;28;20077;-60
2022/04/12 04:21:20;;;;;;;9.27;4.70;;;;;;;6.76;100.00;99708.63;5093397;28;20048;-60
2022/04/12 04:23:46;;;;;;;6.90;4.68;;;;;;;6.75;100.00;99706.03;5085154;28;20537;-60
2022/04/12 04:26:11;;;;;;;8.05;4.20;;;;;;;6.74;100.00;99713.09;5073171;28;20081;-59
2022/04/12 04:28:37;;;;;;;7.05;4.57;;;;;;;6.77;100.00;99704.22;5073118;28;20413;-59
2022/04/12 04:31:02;;;;;;;6.68;3.92;;;;;;;6.74;100.00;99710.44;5072983;28;20020;-59
2022/04/12 04:33:28;;;;;;;8.50;4.18;;;;;;;6.77;100.00;99710.38;5073571;28;20052;-60
2022/04/12 04:35:53;;;;;;;6.63;3.70;;;;;;;6.82;100.00;99712.94;5072926;28;20020;-59
2022/04/12 04:38:19;;;;;;;10.82;5.10;;;;;;;6.79;100.00;99703.28;5073263;28;20126;-60
2022/04/12 04:40:44;;;;;;;12.35;5.25;;;;;;;6.78;100.00;99701.56;5072688;28;20020;-60
2022/04/12 04:43:10;;;;;;;10.52;5.95;;;;;;;6.83;100.00;99704.97;5073247;28;20024;-60
2022/04/12 04:45:36;;;;;;;8.93;5.78;;;;;;;6.90;100.00;99711.84;5072705;28;20040;-60
2022/04/12 04:48:03;;;;;;;11.13;6.30;;;;;;;6.88;100.00;99697.78;5072355;28;20091;-60
2022/04/12 04:50:33;;;;;;;11.93;6.13;;;;;;;6.90;100.00;99701.28;5072736;28;20023;-60
2022/04/12 04:53:02;;;;;;;10.63;6.80;;;;;;;6.99;100.00;99703.69;5073176;28;20032;-60
2022/04/12 04:55:28;;;;;;;9.98;6.90;;;;;;;7.12;100.00;99710.44;5072876;28;20043;-60
2022/04/12 04:57:55;;;;;;;10.77;6.63;;;;;;;7.17;100.00;99716.50;5072402;28;20495;-60
2022/04/12 05:00:22;;;;;;;15.60;7.75;;;;;;;7.18;100.00;99718.22;5072280;28;20549;-59
2022/04/12 05:02:50;;;;;;;15.88;6.72;;;;;;;7.15;99.54;99718.28;5070305;28;20488;-59
2022/04/12 05:05:16;;;;;;;8.60;4.72;;;;;;;7.19;99.61;99717.31;5052507;28;20385;-59
2022/04/12 05:07:44;;;;;;;7.28;5.47;;;;;;;7.21;100.00;99715.53;5066632;28;20472;-60
2022/04/12 05:10:13;;;;;;;9.50;5.53;;;;;;;7.29;100.00;99708.28;5071740;28;20021;-59
2022/04/12 05:12:39;;;;;;;10.95;5.47;;;;;;;7.43;99.66;99703.50;5054160;28;20024;-59
2022/04/12 05:15:05;;;;;;;8.90;5.47;;;;;;;7.50;99.04;99707.72;5072173;28;20104;-60
2022/04/12 05:17:31;;;;;;;11.25;5.40;;;;;;;7.60;98.76;99709.25;5083808;28;20024;-60
2022/04/12 05:19:56;;;;;;;8.20;5.10;;;;;;;7.72;98.45;99705.41;5092668;28;20360;-60
2022/04/12 05:22:23;;;;;;;9.15;4.60;;;;;;;7.84;98.86;99699.81;5078142;28;20029;-59
2022/04/12 05:24:48;;;;;;;7.22;4.45;;;;;;;8.00;98.90;99703.75;5052058;28;20483;-59
2022/04/12 05:27:14;;;;;;;7.00;4.80;;;;;;;8.45;99.98;99705.13;5054552;28;20111;-59
2022/04/12 05:29:40;;;;;;;9.50;5.88;;;;;;;9.28;99.18;99710.53;5052027;28;20017;-59
2022/04/12 05:32:05;;;;;;;71.55;22.67;;;;;;;10.50;93.49;99711.56;5052108;28;20021;-60
2022/04/12 05:34:31;;;;;;;193.55;54.00;;;;;;;12.02;85.66;99708.06;5052427;28;20017;-60
2022/04/12 05:36:56;;;;;;;181.52;55.78;;;;;;;13.00;74.85;99700.84;5060565;28;20357;-59
2022/04/12 05:39:22;;;;;;;142.40;51.00;;;;;;;13.26;70.95;99710.34;5066182;28;20032;-59
2022/04/12 05:41:48;;;;;;;41.45;16.92;;;;;;;12.65;69.11;99712.34;5050936;28;20553;-59
2022/04/12 05:44:14;;;;;;;27.40;11.70;;;;;;;11.92;71.33;99720.03;5051140;28;20032;-59
2022/04/12 05:46:39;;;;;;;24.83;10.20;;;;;;;11.73;74.04;99713.75;5051359;28;20025;-59
2022/04/12 05:49:05;;;;;;;26.75;13.02;;;;;;;12.12;72.71;99709.41;5054269;28;20027;-59
2022/04/12 05:51:30;;;;;;;24.98;10.05;;;;;;;12.07;71.57;99724.72;5052093;28;20032;-59
2022/04/12 05:53:56;;;;;;;13.52;6.85;;;;;;;11.88;73.04;99727.31;5051865;28;20121;-59
2022/04/12 05:56:21;;;;;;;19.05;9.52;;;;;;;12.07;75.41;99730.06;5053894;28;20376;-59
2022/04/12 05:58:46;;;;;;;13.13;8.00;;;;;;;13.01;73.87;99727.50;5068151;28;20021;-59
2022/04/12 06:01:12;;;;;;;9.70;4.85;;;;;;;13.70;70.42;99727.72;5071769;28;20020;-58
2022/04/12 06:03:38;;;;;;;7.72;4.40;;;;;;;14.90;65.79;99718.69;5068007;28;20177;-58
2022/04/12 06:06:03;;;;;;;8.75;4.78;;;;;;;16.21;59.48;99710.19;5060937;28;20412;-59
2022/04/12 06:08:28;;;;;;;13.93;5.80;;;;;;;16.80;55.47;99712.78;5057154;28;20515;-59
2022/04/12 06:10:54;;;;;;;7.57;5.05;;;;;;;16.79;54.66;99713.72;5049350;28;20365;-59
2022/04/12 06:13:19;;;;;;;9.65;5.53;;;;;;;16.47;55.63;99713.06;5049662;28;20772;-58
2022/04/12 06:15:45;;;;;;;13.77;5.53;;;;;;;16.21;57.28;99715.56;5052201;28;20070;-58
2022/04/12 06:18:11;;;;;;;6.00;4.53;;;;;;;15.80;57.33;99720.66;5051499;28;20086;-58
2022/04/12 06:20:36;;;;;;;7.63;4.50;;;;;;;15.53;57.48;99725.81;5064829;28;20043;-58
2022/04/12 06:23:03;;;;;;;6.20;4.30;;;;;;;15.25;57.52;99736.34;5090221;28;20028;-58
2022/04/12 06:25:29;;;;;;;9.82;4.63;;;;;;;14.97;61.40;99727.25;5089927;28;20440;-59
2022/04/12 06:27:54;;;;;;;13.32;4.80;;;;;;;14.75;62.59;99726.66;5085370;28;20051;-58
2022/04/12 06:30:25;;;;;;;11.27;4.90;;;;;;;14.58;62.26;99729.41;5075521;28;20095;-58
2022/04/12 06:32:51;;;;;;;6.05;3.97;;;;;;;14.47;63.64;99721.94;5089467;28;20031;-58
2022/04/12 06:35:17;;;;;;;6.75;4.60;;;;;;;14.13;65.52;99716.59;5089523;28;20059;-59
2022/04/12 06:37:44;;;;;;;10.88;4.75;;;;;;;13.82;65.01;99705.75;5089602;28;20059;-58
2022/04/12 06:40:11;;;;;;;9.55;4.95;;;;;;;14.06;65.49;99741.91;5089231;28;20032;-58
2022/04/12 06:42:37;;;;;;;7.38;4.50;;;;;;;14.20;64.36;99744.78;5077746;28;20040;-58
2022/04/12 06:45:04;;;;;;;6.47;4.35;;;;;;;14.72;65.03;99741.09;5068973;28;20032;-58
2022/04/12 06:47:29;;;;;;;7.72;4.00;;;;;;;15.39;62.68;99741.81;5071457;28;20029;-59
2022/04/12 06:49:55;;;;;;;11.10;4.18;;;;;;;16.06;59.56;99735.25;5084004;28;20491;-59
2022/04/12 06:52:23;;;;;;;7.47;4.40;;;;;;;16.21;56.91;99735.19;5076657;28;20077;-58
2022/04/12 06:54:49;;;;;;;8.90;4.38;;;;;;;15.97;56.73;99738.47;5071048;28;20127;-58
2022/04/12 06:57:15;;;;;;;7.22;4.38;;;;;;;15.85;57.23;99707.03;5085551;28;20052;-59
2022/04/12 06:59:41;;;;;;;7.13;4.25;;;;;;;16.05;58.87;99747.78;5084275;28;20024;-58
2022/04/12 07:02:06;;;;;;;11.35;4.40;;;;;;;16.17;57.68;99746.19;5086190;28;20072;-58
2022/04/12 07:04:33;;;;;;;6.78;3.90;;;;;;;16.48;57.70;99740.75;5076029;28;20024;-58
2022/04/12 07:06:59;;;;;;;7.82;4.82;;;;;;;16.77;56.97;99737.16;5074990;28;20400;-59
2022/04/12 07:09:27;;;;;;;7.00;4.25;;;;;;;16.88;55.17;99734.66;5089395;28;20028;-58
2022/04/12 07:11:54;;;;;;;6.68;4.70;;;;;;;16.81;54.52;99738.69;5089906;28;20391;-59
2022/04/12 07:14:20;;;;;;;5.88;4.45;;;;;;;16.76;55.43;99743.47;5088789;28;20032;-59
2022/04/12 07:16:45;;;;;;;11.60;4.68;;;;;;;16.87;56.52;99735.59;5089773;28;20394;-58
2022/04/12 07:19:11;;;;;;;9.15;4.95;;;;;;;16.86;54.70;99733.88;5074187;28;20021;-58
2022/04/12 07:21:37;;;;;;;9.52;4.05;;;;;;;17.02;54.41;99743.56;5070985;28;20061;-59
2022/04/12 07:24:05;;;;;;;7.57;4.85;;;;;;;16.92;55.10;99739.72;5071257;28;20025;-58
2022/04/12 07:26:31;;;;;;;9.15;4.38;;;;;;;17.16;54.38;99748.06;5073111;28;20028;-58
2022/04/12 07:28:57;;;;;;;7.95;4.20;;;;;;;17.33;53.02;99747.00;5070711;28;20031;-58
2022/04/12 07:31:23;;;;;;;7.80;4.25;;;;;;;17.30;53.24;99745.34;5072097;28;20056;-59
2022/04/12 07:33:48;;;;;;;7.60;4.65;;;;;;;17.28;53.08;99744.59;5072590;28;20569;-58
2022/04/12 07:36:14;;;;;;;12.25;4.50;;;;;;;16.91;54.96;99739.84;5077048;28;20546;-58
2022/04/12 07:38:41;;;;;;;9.55;5.22;;;;;;;16.86;53.33;99737.44;5094632;28;20118;-58
2022/04/12 07:41:06;;;;;;;6.40;4.55;;;;;;;16.74;54.13;99730.13;5093917;28;20019;-58
2022/04/12 07:43:31;;;;;;;6.50;4.45;;;;;;;16.70;54.58;99735.81;5094174;28;20024;-58
2022/04/12 07:45:57;;;;;;;6.07;4.25;;;;;;;16.74;54.71;99731.94;5094143;28;20085;-58
2022/04/12 07:48:22;;;;;;;7.72;5.07;;;;;;;17.13;55.26;99729.47;5087011;28;20063;-58
2022/04/12 07:50:48;;;;;;;9.30;5.00;;;;;;;17.52;54.00;99726.91;5073578;28;20052;-58
2022/04/12 07:53:14;;;;;;;6.88;4.07;;;;;;;17.98;51.51;99730.97;5074457;28;20063;-59
2022/04/12 07:55:39;;;;;;;6.47;4.00;;;;;;;18.66;52.02;99712.81;5074362;28;20052;-59
2022/04/12 07:58:04;;;;;;;8.98;4.65;;;;;;;18.98;49.32;99726.69;5073827;28;20107;-59
2022/04/12 08:00:30;;;;;;;10.27;4.40;;;;;;;19.49;48.42;99723.81;5074220;28;20032;-59
2022/04/12 08:02:55;;;;;;;5.25;3.63;;;;;;;19.76;46.25;99726.31;5073714;28;20306;-58
2022/04/12 08:05:21;;;;;;;6.20;4.38;;;;;;;20.10;46.18;99732.75;5072713;28;20032;-58
2022/04/12 08:07:49;;;;;;;12.77;4.45;;;;;;;20.21;47.67;99730.97;5089035;28;20032;-58
2022/04/12 08:10:18;;;;;;;10.80;5.03;;;;;;;20.38;46.19;99733.22;5093750;28;20027;-58
2022/04/12 08:12:45;;;;;;;10.13;4.32;;;;;;;20.52;43.84;99730.34;5094415;28;20047;-58
2022/04/12 08:15:12;;;;;;;7.38;4.47;;;;;;;20.72;44.17;99726.91;5092912;28;20052;-58
2022/04/12 08:17:38;;;;;;;6.85;4.00;;;;;;;20.72;44.45;99737.72;5093588;28;20755;-58
2022/04/12 08:20:13;;;;;;;6.65;3.67;;;;;;;20.91;44.58;99724.50;5093434;28;20541;-58
2022/04/12 08:22:38;;;;;;;8.50;4.78;;;;;;;21.05;43.65;99736.09;5094590;28;20031;-58
2022/04/12 08:25:04;;;;;;;7.75;4.82;;;;;;;21.34;43.06;99737.31;5092380;28;20024;-60
2022/04/12 08:27:30;;;;;;;6.88;4.28;;;;;;;21.54;43.10;99741.97;5093044;28;20020;-59
2022/04/12 08:29:56;;;;;;;7.25;4.35;;;;;;;21.75;44.68;99729.34;5093251;28;20543;-58
2022/04/12 08:32:21;;;;;;;9.88;4.45;;;;;;;22.10;41.07;99735.44;5073625;28;20028;-58
2022/04/12 08:34:47;;;;;;;6.75;4.28;;;;;;;22.17;41.49;99740.19;5073255;28;20082;-58
2022/04/12 08:37:13;;;;;;;6.32;3.63;;;;;;;22.49;41.47;99725.78;5073317;28;20040;-58
2022/04/12 08:39:39;;;;;;;6.65;3.35;;;;;;;22.46;40.89;99721.47;5072939;28;20028;-60
2022/04/12 08:42:05;;;;;;;5.88;3.65;;;;;;;22.59;40.19;99722.16;5073213;28;20499;-58
2022/04/12 08:44:33;;;;;;;6.78;3.47;;;;;;;22.85;40.13;99723.47;5072034;28;20596;-58
2022/04/12 08:47:03;;;;;;;5.82;3.20;;;;;;;22.67;38.80;99724.22;5071771;28;20115;-58
2022/04/12 08:49:29;;;;;;;5.72;3.80;;;;;;;22.65;40.73;99724.34;5073211;28;20028;-58
2022/04/12 08:51:55;;;;;;;7.30;3.30;;;;;;;22.59;39.98;99722.16;5073364;28;20029;-58
2022/04/12 08:54:22;;;;;;;5.05;3.20;;;;;;;22.70;38.30;99732.94;5072786;28;20503;-58
2022/04/12 08:56:49;;;;;;;5.93;3.90;;;;;;;22.99;39.45;99717.72;5073125;28;20013;-60
2022/04/12 08:59:15;;;;;;;7.85;4.30;;;;;;;23.19;37.67;99710.50;5070796;28;20021;-60
2022/04/12 09:01:42;;;;;;;6.93;3.45;;;;;;;23.23;38.84;99707.38;5054762;28;20433;-60
2022/04/12 09:04:08;;;;;;;4.72;3.20;;;;;;;23.49;38.76;99713.22;5052293;28;20596;-61
2022/04/12 09:06:34;;;;;;;4.63;2.67;;;;;;;23.52;37.08;99714.78;5058056;28;20031;-61
2022/04/12 09:09:15;;;;;;;5.25;3.15;;;;;;;23.75;38.02;99719.88;5071881;28;20471;-61
2022/04/12 09:11:42;;;;;;;4.45;2.30;;;;;;;23.91;37.06;99716.59;5073131;28;20467;-60
2022/04/12 09:14:12;;;;;;;6.60;3.00;;;;;;;24.29;35.71;99713.91;5073198;28;20052;-59
2022/04/12 09:16:45;;;;;;;5.15;2.38;;;;;;;24.64;34.29;99725.06;5070514;28;20487;-59
2022/04/12 09:19:11;;;;;;;5.35;2.53;;;;;;;25.13;35.30;99727.53;5072251;28;20027;-59
2022/04/12 09:21:47;;;;;;;4.97;2.03;;;;;;;25.36;34.19;99712.56;5089773;28;20048;-59
2022/04/12 09:24:22;;;;;;;4.53;2.30;;;;;;;25.66;32.84;99715.00;5091711;28;20395;-59
2022/04/12 09:26:57;;;;;;;5.78;2.58;;;;;;;25.72;33.61;99714.38;5088682;28;20016;-59
2022/04/12 09:29:30;;;;;;;9.48;2.30;;;;;;;25.88;33.72;99711.81;5092616;28;20111;-59
2022/04/12 09:31:58;;;;;;;3.67;2.00;;;;;;;26.12;33.85;99710.41;5092727;28;20498;-59
2022/04/12 09:34:24;;;;;;;6.05;2.50;;;;;;;25.98;31.78;99713.63;5091966;28;20266;-59
2022/04/12 09:36:50;;;;;;;5.38;2.50;;;;;;;25.64;35.12;99716.16;5092452;28;20016;-59
2022/04/12 09:39:19;;;;;;;4.35;2.33;;;;;;;25.68;33.54;99723.03;5089105;28;20028;-59
2022/04/12 09:41:47;;;;;;;6.32;2.33;;;;;;;25.71;33.69;99714.53;5091184;28;20023;-59
2022/04/12 09:44:17;;;;;;;5.60;2.35;;;;;;;25.71;34.30;99707.22;5091547;28;20024;-59
2022/04/12 09:46:44;;;;;;;3.67;2.10;;;;;;;25.87;33.17;99712.84;5092498;28;20588;-59
2022/04/12 09:49:10;;;;;;;5.35;2.40;;;;;;;25.75;33.66;99707.75;5091975;28;20042;-59
2022/04/12 09:51:36;;;;;;;5.97;2.60;;;;;;;25.81;35.75;99701.72;5092394;28;20024;-59
2022/04/12 09:54:06;;;;;;;3.80;2.40;;;;;;;26.04;33.81;99702.13;5091096;28;20027;-59
2022/04/12 09:56:34;;;;;;;5.22;2.30;;;;;;;26.10;33.75;99688.75;5092023;28;20558;-59
2022/04/12 09:59:01;;;;;;;5.00;2.40;;;;;;;25.91;34.66;99692.44;5089950;28;20046;-59
2022/04/12 10:01:28;;;;;;;5.07;2.50;;;;;;;25.92;33.64;99690.56;5091776;28;20051;-59
2022/04/12 10:03:58;;;;;;;3.60;2.00;;;;;;;26.38;33.74;99673.13;5091831;28;20028;-59
2022/04/12 10:06:28;;;;;;;4.75;2.55;;;;;;;26.64;33.58;99663.13;5090493;28;20024;-59
2022/04/12 10:08:59;;;;;;;8.70;2.33;;;;;;;26.91;33.74;99671.16;5091526;28;20471;-59
2022/04/12 10:11:26;;;;;;;12.18;2.83;;;;;;;27.34;31.80;99659.28;5091534;28;20069;-59
2022/04/12 10:13:52;;;;;;;4.38;2.30;;;;;;;27.04;31.88;99653.34;5091457;28;20110;-59
2022/04/12 10:16:20;;;;;;;5.18;2.20;;;;;;;26.75;31.61;99654.69;5091659;28;20024;-59
2022/04/12 10:18:46;;;;;;;3.35;1.95;;;;;;;26.55;32.85;99647.69;5092242;28;20024;-59
2022/04/12 10:21:12;;;;;;;4.35;2.30;;;;;;;26.92;32.62;99653.75;5091338;28;20047;-59
2022/04/12 10:23:41;;;;;;;6.88;2.58;;;;;;;26.84;32.14;99645.53;5092005;28;20020;-59
2022/04/12 10:26:08;;;;;;;4.57;2.55;;;;;;;27.06;31.88;99647.72;5091411;28;20024;-60
2022/04/12 10:28:35;;;;;;;4.68;2.42;;;;;;;27.07;32.73;99650.28;5090693;28;20028;-59
2022/04/12 10:31:15;;;;;;;5.20;2.00;;;;;;;27.29;32.11;99646.13;5089904;28;20035;-59
2022/04/12 10:33:50;;;;;;;4.32;2.45;;;;;;;26.98;31.67;99639.47;5051402;28;20031;-59
2022/04/12 10:36:16;;;;;;;7.38;2.42;;;;;;;26.57;32.82;99640.22;5054434;28;20563;-59
2022/04/12 10:38:44;;;;;;;3.97;2.17;;;;;;;26.46;34.75;99633.13;5070888;28;20118;-59
2022/04/12 10:41:36;;;;;;;6.40;2.63;;;;;;;26.62;33.12;99627.78;5071056;28;20032;-59
2022/04/12 10:44:02;;;;;;;4.35;2.28;;;;;;;26.81;32.76;99629.47;5071111;28;20020;-59
2022/04/12 10:46:47;;;;;;;3.75;2.10;;;;;;;26.80;35.29;99630.50;5070994;28;20380;-59
2022/04/12 10:49:16;;;;;;;4.22;2.33;;;;;;;26.42;34.73;99630.91;5052595;28;20074;-59
2022/04/12 10:51:42;;;;;;;3.65;2.28;;;;;;;26.67;33.46;99628.19;5071166;28;20032;-59
2022/04/12 10:54:28;;;;;;;4.20;2.10;;;;;;;26.91;31.57;99614.69;5071358;28;20021;-59
2022/04/12 10:57:18;;;;;;;4.05;2.10;;;;;;;27.06;33.82;99614.94;5054671;28;20088;-59
2022/04/12 11:00:05;;;;;;;5.10;2.55;;;;;;;26.53;35.35;99622.44;5051179;28;20686;-59
2022/04/12 11:02:37;;;;;;;4.32;2.30;;;;;;;26.47;32.46;99617.63;5050724;28;20025;-59
2022/04/12 11:05:03;;;;;;;5.68;2.30;;;;;;;26.79;32.58;99602.34;5052361;28;20116;-59
2022/04/12 11:07:34;;;;;;;10.20;2.75;;;;;;;27.23;33.09;99601.16;5066884;28;20099;-59
2022/04/12 11:10:20;;;;;;;4.75;1.77;;;;;;;27.77;31.44;99610.75;5061482;28;20548;-59
2022/04/12 11:12:47;;;;;;;4.95;1.98;;;;;;;28.11;30.59;99603.28;5054824;28;20017;-59
2022/04/12 11:15:27;;;;;;;4.30;2.10;;;;;;;28.27;31.11;99602.44;5053469;28;20078;-59
2022/04/12 11:18:10;;;;;;;2.47;1.55;;;;;;;27.60;29.94;99595.34;5078353;28;20017;-59
2022/04/12 11:20:38;;;;;;;3.78;1.70;;;;;;;27.62;33.34;99596.03;5062889;28;20040;-59
2022/04/12 11:23:14;;;;;;;3.38;1.48;;;;;;;28.03;31.68;99589.63;5074519;28;20031;-59
2022/04/12 11:25:51;;;;;;;4.40;1.90;;;;;;;28.05;32.85;99593.03;5074523;28;20021;-59
2022/04/12 11:28:24;;;;;;;3.58;1.58;;;;;;;28.32;30.91;99589.94;5074607;28;20105;-59
2022/04/12 11:30:57;;;;;;;3.55;1.80;;;;;;;28.41;30.35;99583.44;5075106;28;20028;-59
2022/04/12 11:33:27;;;;;;;4.60;1.98;;;;;;;28.86;32.68;99579.25;5074717;28;20419;-59
2022/04/12 11:35:54;;;;;;;2.40;1.48;;;;;;;29.03;30.10;99578.13;5074485;28;20100;-59